Atlanta, GA

7:30 PM EST on February 21, 2017 (GMT -0500)
Castleberry Hill | | Change Station

Elev 1057 ft 33.75 °N, 84.40 °W | Updated 24 seconds ago

Rain
Rain
60.3 °F
Feels Like 60.3 °F
N
2.0
Wind Variable Wind from NE

Today
High -- | Low -- °F
--% Chance of Precip.
Yesterday
High -- | Low -- °F
Precip. -- in
Pressure 29.98 in
Visibility 5.0 miles
Clouds Few 2800 ft
Mostly Cloudy 3700 ft
Overcast 4500 ft
Dew Point 58 °F
Humidity 93%
Rainfall 0.17 in
Snow Depth Not available.
7:15 AM 6:27 PM
Waning Crescent, 21% visible
METAR KFTY 212353Z 00000KT 5SM -RA BR FEW028 BKN037 OVC045 17/15 A2999 RMK AO2 SLP152 P0003 60005 T01670150 10217 20167 55003
Pressure 29.98 in
Visibility 5.0 miles
Clouds Few 2800 ft
Mostly Cloudy 3700 ft
Overcast 4500 ft
Dew Point 58 °F
Humidity 93%
Rainfall 0.17 in
Snow Depth Not available.
7:15 AM 6:27 PM
Waning Crescent, 21% visible
METAR KFTY 212353Z 00000KT 5SM -RA BR FEW028 BKN037 OVC045 17/15 A2999 RMK AO2 SLP152 P0003 60005 T01670150 10217 20167 55003

Get Your Daily Forecast Email!

Thanks for signing up!

Be on the lookout for a verification email in your inbox.

You'll start receiving the daily forecast at 8 AM.

×

10-Day Weather Forecast

Almanac

Astronomy

Feb. 21, 2017 Rise Set
Actual Time
Civil Twilight
Nautical Twilight
Astronomical Twilight
Moon
Length of Visible Light
Length of Day
Tomorrow will be .
, % of the Moon is Illuminated

Today's Extremes

State Highs State Lows

Community

WunderPhotos

Upload Photos

1,962,540 photos uploaded!

WunderBlog® & News

Nearby

Air Quality

  Air Quality AQ Index Pollutant
Not available.

Snow Depth

Station Depth Elevation

Earthquake Activity

City Distance Mag. Time & Date
Minimum magnitude displayed is 2.5.

Coastal Water Temperatures

Place Temperature

Stations

Nearby Weather Stations

Station Location Temp. Windchill Dew Point Humidity Wind Precip. Elev Updated Type
                   

Watches & Warnings

There are currently no watches in effect.